<?xml version="1.0" encoding="UTF-8" standalone="no" ?>
<gpx xmlns="http://www.topografix.com/GPX/1/1" xmlns:xsi="http://www.w3.org/2001/XMLSchema-instance" xsi:schemaLocation="http://www.topografix.com/GPX/1/1 http://www.topografix.com/GPX/1/1/gpx.xsd" version="1.1" creator="VisuGPX - https://www.visugpx.com">
  <metadata>
    <name>Traversée des Pyrénées 1/8</name>
    <desc><![CDATA[Partie 1/8 de la traversée des Pyrénées à ski.]]></desc>
  </metadata>
  <trk>
    <name><![CDATA[TPS1 10 FEB 2016]]></name>
    <trkseg>
      <trkpt lat="42.5588" lon="2.00342">
        <ele>2007.85</ele>
        <time>2017-02-10T07:06:41Z</time>
      </trkpt>
      <trkpt lat="42.5588" lon="2.00342">
        <ele>2007.85</ele>
        <time>2017-02-10T07:06:42Z</time>
      </trkpt>
      <trkpt lat="42.55909" lon="2.00279">
        <ele>2006.41</ele>
        <time>2017-02-10T07:09:43Z</time>
      </trkpt>
      <trkpt lat="42.55954" lon="2.00153">
        <ele>2002.56</ele>
        <time>2017-02-10T07:11:14Z</time>
      </trkpt>
      <trkpt lat="42.55974" lon="2.00106">
        <ele>2004.49</ele>
        <time>2017-02-10T07:11:53Z</time>
      </trkpt>
      <trkpt lat="42.5599" lon="2.00036">
        <ele>2008.81</ele>
        <time>2017-02-10T07:13:05Z</time>
      </trkpt>
      <trkpt lat="42.55981" lon="1.99963">
        <ele>2012.66</ele>
        <time>2017-02-10T07:14:11Z</time>
      </trkpt>
      <trkpt lat="42.55967" lon="1.99918">
        <ele>2017.46</ele>
        <time>2017-02-10T07:15:01Z</time>
      </trkpt>
      <trkpt lat="42.55966" lon="1.99879">
        <ele>2020.83</ele>
        <time>2017-02-10T07:15:41Z</time>
      </trkpt>
      <trkpt lat="42.56028" lon="1.99768">
        <ele>2025.15</ele>
        <time>2017-02-10T07:18:05Z</time>
      </trkpt>
      <trkpt lat="42.56003" lon="1.99712">
        <ele>2029.48</ele>
        <time>2017-02-10T07:19:11Z</time>
      </trkpt>
      <trkpt lat="42.55994" lon="1.99665">
        <ele>2033.33</ele>
        <time>2017-02-10T07:19:52Z</time>
      </trkpt>
      <trkpt lat="42.55999" lon="1.9961">
        <ele>2036.69</ele>
        <time>2017-02-10T07:21:18Z</time>
      </trkpt>
      <trkpt lat="42.56004" lon="1.99576">
        <ele>2040.05</ele>
        <time>2017-02-10T07:21:56Z</time>
      </trkpt>
      <trkpt lat="42.56015" lon="1.9952">
        <ele>2044.86</ele>
        <time>2017-02-10T07:22:52Z</time>
      </trkpt>
      <trkpt lat="42.56025" lon="1.99488">
        <ele>2049.67</ele>
        <time>2017-02-10T07:23:31Z</time>
      </trkpt>
      <trkpt lat="42.5603" lon="1.99461">
        <ele>2053.03</ele>
        <time>2017-02-10T07:26:26Z</time>
      </trkpt>
      <trkpt lat="42.5603" lon="1.9945">
        <ele>2056.4</ele>
        <time>2017-02-10T07:26:40Z</time>
      </trkpt>
      <trkpt lat="42.56029" lon="1.99428">
        <ele>2061.68</ele>
        <time>2017-02-10T07:27:14Z</time>
      </trkpt>
      <trkpt lat="42.56014" lon="1.9941">
        <ele>2066.01</ele>
        <time>2017-02-10T07:27:50Z</time>
      </trkpt>
      <trkpt lat="42.56011" lon="1.99393">
        <ele>2070.34</ele>
        <time>2017-02-10T07:28:25Z</time>
      </trkpt>
      <trkpt lat="42.56009" lon="1.99369">
        <ele>2073.7</ele>
        <time>2017-02-10T07:28:57Z</time>
      </trkpt>
      <trkpt lat="42.56003" lon="1.99333">
        <ele>2072.26</ele>
        <time>2017-02-10T07:29:33Z</time>
      </trkpt>
      <trkpt lat="42.5602" lon="1.99123">
        <ele>2077.55</ele>
        <time>2017-02-10T07:32:21Z</time>
      </trkpt>
      <trkpt lat="42.56029" lon="1.99116">
        <ele>2080.91</ele>
        <time>2017-02-10T07:32:40Z</time>
      </trkpt>
      <trkpt lat="42.56023" lon="1.99083">
        <ele>2084.76</ele>
        <time>2017-02-10T07:33:16Z</time>
      </trkpt>
      <trkpt lat="42.56047" lon="1.99045">
        <ele>2084.28</ele>
        <time>2017-02-10T07:34:08Z</time>
      </trkpt>
      <trkpt lat="42.56116" lon="1.98933">
        <ele>2089.56</ele>
        <time>2017-02-10T07:35:53Z</time>
      </trkpt>
      <trkpt lat="42.56154" lon="1.98885">
        <ele>2092.93</ele>
        <time>2017-02-10T07:36:50Z</time>
      </trkpt>
      <trkpt lat="42.56163" lon="1.98871">
        <ele>2096.29</ele>
        <time>2017-02-10T07:37:11Z</time>
      </trkpt>
      <trkpt lat="42.56184" lon="1.98842">
        <ele>2101.58</ele>
        <time>2017-02-10T07:37:52Z</time>
      </trkpt>
      <trkpt lat="42.56221" lon="1.98805">
        <ele>2104.94</ele>
        <time>2017-02-10T07:38:51Z</time>
      </trkpt>
      <trkpt lat="42.56234" lon="1.98795">
        <ele>2104.94</ele>
        <time>2017-02-10T07:39:11Z</time>
      </trkpt>
      <trkpt lat="42.56258" lon="1.98767">
        <ele>2108.79</ele>
        <time>2017-02-10T07:39:53Z</time>
      </trkpt>
      <trkpt lat="42.56264" lon="1.98754">
        <ele>2112.15</ele>
        <time>2017-02-10T07:40:14Z</time>
      </trkpt>
      <trkpt lat="42.56264" lon="1.98743">
        <ele>2115.52</ele>
        <time>2017-02-10T07:40:33Z</time>
      </trkpt>
      <trkpt lat="42.56281" lon="1.98715">
        <ele>2119.84</ele>
        <time>2017-02-10T07:41:18Z</time>
      </trkpt>
      <trkpt lat="42.56297" lon="1.98694">
        <ele>2125.61</ele>
        <time>2017-02-10T07:41:56Z</time>
      </trkpt>
      <trkpt lat="42.56316" lon="1.98653">
        <ele>2129.46</ele>
        <time>2017-02-10T07:42:50Z</time>
      </trkpt>
      <trkpt lat="42.56338" lon="1.98625">
        <ele>2133.78</ele>
        <time>2017-02-10T07:43:29Z</time>
      </trkpt>
      <trkpt lat="42.56345" lon="1.98604">
        <ele>2139.55</ele>
        <time>2017-02-10T07:44:05Z</time>
      </trkpt>
      <trkpt lat="42.56344" lon="1.98603">
        <ele>2138.59</ele>
        <time>2017-02-10T07:44:35Z</time>
      </trkpt>
      <trkpt lat="42.56335" lon="1.9856">
        <ele>2143.4</ele>
        <time>2017-02-10T07:48:25Z</time>
      </trkpt>
      <trkpt lat="42.56366" lon="1.98373">
        <ele>2147.72</ele>
        <time>2017-02-10T07:51:15Z</time>
      </trkpt>
      <trkpt lat="42.56361" lon="1.98349">
        <ele>2147.72</ele>
        <time>2017-02-10T07:51:31Z</time>
      </trkpt>
      <trkpt lat="42.56341" lon="1.98309">
        <ele>2151.09</ele>
        <time>2017-02-10T07:52:17Z</time>
      </trkpt>
      <trkpt lat="42.56325" lon="1.9828">
        <ele>2157.34</ele>
        <time>2017-02-10T07:53:03Z</time>
      </trkpt>
      <trkpt lat="42.56313" lon="1.9825">
        <ele>2161.18</ele>
        <time>2017-02-10T07:53:43Z</time>
      </trkpt>
      <trkpt lat="42.56314" lon="1.98238">
        <ele>2164.55</ele>
        <time>2017-02-10T07:54:19Z</time>
      </trkpt>
      <trkpt lat="42.56305" lon="1.98217">
        <ele>2161.18</ele>
        <time>2017-02-10T07:56:49Z</time>
      </trkpt>
      <trkpt lat="42.56281" lon="1.98168">
        <ele>2157.34</ele>
        <time>2017-02-10T07:58:17Z</time>
      </trkpt>
      <trkpt lat="42.56263" lon="1.98129">
        <ele>2158.3</ele>
        <time>2017-02-10T07:59:31Z</time>
      </trkpt>
      <trkpt lat="42.56245" lon="1.98099">
        <ele>2154.93</ele>
        <time>2017-02-10T07:59:56Z</time>
      </trkpt>
      <trkpt lat="42.56177" lon="1.9807">
        <ele>2160.22</ele>
        <time>2017-02-10T08:02:29Z</time>
      </trkpt>
      <trkpt lat="42.5615" lon="1.98084">
        <ele>2164.06</ele>
        <time>2017-02-10T08:03:08Z</time>
      </trkpt>
      <trkpt lat="42.56109" lon="1.98061">
        <ele>2168.87</ele>
        <time>2017-02-10T08:04:12Z</time>
      </trkpt>
      <trkpt lat="42.56088" lon="1.98034">
        <ele>2173.68</ele>
        <time>2017-02-10T08:04:49Z</time>
      </trkpt>
      <trkpt lat="42.56077" lon="1.97988">
        <ele>2176.08</ele>
        <time>2017-02-10T08:05:41Z</time>
      </trkpt>
      <trkpt lat="42.56081" lon="1.97974">
        <ele>2176.08</ele>
        <time>2017-02-10T08:05:51Z</time>
      </trkpt>
      <trkpt lat="42.56085" lon="1.97954">
        <ele>2174.16</ele>
        <time>2017-02-10T08:06:02Z</time>
      </trkpt>
      <trkpt lat="42.56087" lon="1.97952">
        <ele>2174.16</ele>
        <time>2017-02-10T08:06:04Z</time>
      </trkpt>
      <trkpt lat="42.56115" lon="1.97865">
        <ele>2169.83</ele>
        <time>2017-02-10T08:07:06Z</time>
      </trkpt>
      <trkpt lat="42.56154" lon="1.97762">
        <ele>2161.18</ele>
        <time>2017-02-10T08:08:12Z</time>
      </trkpt>
      <trkpt lat="42.56144" lon="1.97609">
        <ele>2165.99</ele>
        <time>2017-02-10T08:10:12Z</time>
      </trkpt>
      <trkpt lat="42.5614" lon="1.97553">
        <ele>2169.35</ele>
        <time>2017-02-10T08:11:00Z</time>
      </trkpt>
      <trkpt lat="42.56201" lon="1.97148">
        <ele>2173.2</ele>
        <time>2017-02-10T08:15:44Z</time>
      </trkpt>
      <trkpt lat="42.56214" lon="1.9709">
        <ele>2176.56</ele>
        <time>2017-02-10T08:16:43Z</time>
      </trkpt>
      <trkpt lat="42.56203" lon="1.97062">
        <ele>2175.6</ele>
        <time>2017-02-10T08:17:06Z</time>
      </trkpt>
      <trkpt lat="42.56108" lon="1.96515">
        <ele>2178.97</ele>
        <time>2017-02-10T08:23:46Z</time>
      </trkpt>
      <trkpt lat="42.56102" lon="1.96371">
        <ele>2182.33</ele>
        <time>2017-02-10T08:25:55Z</time>
      </trkpt>
      <trkpt lat="42.56106" lon="1.96319">
        <ele>2186.66</ele>
        <time>2017-02-10T08:26:47Z</time>
      </trkpt>
      <trkpt lat="42.56099" lon="1.96305">
        <ele>2190.02</ele>
        <time>2017-02-10T08:27:32Z</time>
      </trkpt>
      <trkpt lat="42.56087" lon="1.96299">
        <ele>2194.35</ele>
        <time>2017-02-10T08:28:17Z</time>
      </trkpt>
      <trkpt lat="42.56078" lon="1.96281">
        <ele>2198.67</ele>
        <time>2017-02-10T08:29:42Z</time>
      </trkpt>
      <trkpt lat="42.56065" lon="1.96266">
        <ele>2203</ele>
        <time>2017-02-10T08:30:19Z</time>
      </trkpt>
      <trkpt lat="42.56048" lon="1.96252">
        <ele>2208.29</ele>
        <time>2017-02-10T08:32:36Z</time>
      </trkpt>
      <trkpt lat="42.5605" lon="1.96238">
        <ele>2212.13</ele>
        <time>2017-02-10T08:36:08Z</time>
      </trkpt>
      <trkpt lat="42.56051" lon="1.96225">
        <ele>2217.42</ele>
        <time>2017-02-10T08:36:47Z</time>
      </trkpt>
      <trkpt lat="42.56035" lon="1.96221">
        <ele>2222.71</ele>
        <time>2017-02-10T08:37:23Z</time>
      </trkpt>
      <trkpt lat="42.56038" lon="1.96207">
        <ele>2227.03</ele>
        <time>2017-02-10T08:38:01Z</time>
      </trkpt>
      <trkpt lat="42.56045" lon="1.96197">
        <ele>2231.36</ele>
        <time>2017-02-10T08:38:42Z</time>
      </trkpt>
      <trkpt lat="42.56029" lon="1.96193">
        <ele>2236.16</ele>
        <time>2017-02-10T08:39:23Z</time>
      </trkpt>
      <trkpt lat="42.56016" lon="1.96192">
        <ele>2241.45</ele>
        <time>2017-02-10T08:39:59Z</time>
      </trkpt>
      <trkpt lat="42.56001" lon="1.96186">
        <ele>2247.22</ele>
        <time>2017-02-10T08:40:36Z</time>
      </trkpt>
      <trkpt lat="42.55996" lon="1.96178">
        <ele>2250.58</ele>
        <time>2017-02-10T08:40:54Z</time>
      </trkpt>
      <trkpt lat="42.55999" lon="1.9616">
        <ele>2256.35</ele>
        <time>2017-02-10T08:41:34Z</time>
      </trkpt>
      <trkpt lat="42.56002" lon="1.96141">
        <ele>2261.16</ele>
        <time>2017-02-10T08:42:10Z</time>
      </trkpt>
      <trkpt lat="42.56008" lon="1.96117">
        <ele>2266.45</ele>
        <time>2017-02-10T08:42:47Z</time>
      </trkpt>
      <trkpt lat="42.56014" lon="1.96093">
        <ele>2270.29</ele>
        <time>2017-02-10T08:43:29Z</time>
      </trkpt>
      <trkpt lat="42.56012" lon="1.96063">
        <ele>2275.1</ele>
        <time>2017-02-10T08:44:10Z</time>
      </trkpt>
      <trkpt lat="42.56" lon="1.95982">
        <ele>2281.35</ele>
        <time>2017-02-10T08:46:18Z</time>
      </trkpt>
      <trkpt lat="42.56" lon="1.95979">
        <ele>2281.35</ele>
        <time>2017-02-10T08:46:21Z</time>
      </trkpt>
      <trkpt lat="42.56014" lon="1.95913">
        <ele>2287.11</ele>
        <time>2017-02-10T08:47:13Z</time>
      </trkpt>
      <trkpt lat="42.56027" lon="1.95815">
        <ele>2294.32</ele>
        <time>2017-02-10T08:48:41Z</time>
      </trkpt>
      <trkpt lat="42.56028" lon="1.95775">
        <ele>2299.13</ele>
        <time>2017-02-10T08:49:23Z</time>
      </trkpt>
      <trkpt lat="42.56029" lon="1.9574">
        <ele>2302.98</ele>
        <time>2017-02-10T08:49:58Z</time>
      </trkpt>
      <trkpt lat="42.56031" lon="1.95708">
        <ele>2308.26</ele>
        <time>2017-02-10T08:50:32Z</time>
      </trkpt>
      <trkpt lat="42.56038" lon="1.95651">
        <ele>2314.03</ele>
        <time>2017-02-10T08:51:26Z</time>
      </trkpt>
      <trkpt lat="42.56043" lon="1.95618">
        <ele>2319.32</ele>
        <time>2017-02-10T08:52:00Z</time>
      </trkpt>
      <trkpt lat="42.56046" lon="1.95601">
        <ele>2322.68</ele>
        <time>2017-02-10T08:52:17Z</time>
      </trkpt>
      <trkpt lat="42.56044" lon="1.95569">
        <ele>2327.97</ele>
        <time>2017-02-10T08:52:51Z</time>
      </trkpt>
      <trkpt lat="42.56041" lon="1.95556">
        <ele>2331.33</ele>
        <time>2017-02-10T08:53:07Z</time>
      </trkpt>
      <trkpt lat="42.56036" lon="1.95524">
        <ele>2335.66</ele>
        <time>2017-02-10T08:53:45Z</time>
      </trkpt>
      <trkpt lat="42.56038" lon="1.95499">
        <ele>2339.02</ele>
        <time>2017-02-10T08:54:27Z</time>
      </trkpt>
      <trkpt lat="42.56041" lon="1.95482">
        <ele>2342.87</ele>
        <time>2017-02-10T08:54:43Z</time>
      </trkpt>
      <trkpt lat="42.56048" lon="1.95455">
        <ele>2346.23</ele>
        <time>2017-02-10T08:55:12Z</time>
      </trkpt>
      <trkpt lat="42.56051" lon="1.95439">
        <ele>2350.08</ele>
        <time>2017-02-10T08:55:28Z</time>
      </trkpt>
      <trkpt lat="42.56059" lon="1.95407">
        <ele>2353.44</ele>
        <time>2017-02-10T08:56:00Z</time>
      </trkpt>
      <trkpt lat="42.56065" lon="1.95367">
        <ele>2358.25</ele>
        <time>2017-02-10T08:56:44Z</time>
      </trkpt>
      <trkpt lat="42.56078" lon="1.95326">
        <ele>2362.58</ele>
        <time>2017-02-10T08:57:26Z</time>
      </trkpt>
      <trkpt lat="42.56106" lon="1.95273">
        <ele>2367.38</ele>
        <time>2017-02-10T08:58:54Z</time>
      </trkpt>
      <trkpt lat="42.56094" lon="1.95231">
        <ele>2370.75</ele>
        <time>2017-02-10T09:00:16Z</time>
      </trkpt>
      <trkpt lat="42.56107" lon="1.95181">
        <ele>2374.59</ele>
        <time>2017-02-10T09:01:59Z</time>
      </trkpt>
      <trkpt lat="42.56124" lon="1.95135">
        <ele>2380.36</ele>
        <time>2017-02-10T09:03:04Z</time>
      </trkpt>
      <trkpt lat="42.56132" lon="1.95116">
        <ele>2382.28</ele>
        <time>2017-02-10T09:03:24Z</time>
      </trkpt>
      <trkpt lat="42.56144" lon="1.9509">
        <ele>2381.32</ele>
        <time>2017-02-10T09:03:46Z</time>
      </trkpt>
      <trkpt lat="42.56193" lon="1.94961">
        <ele>2387.09</ele>
        <time>2017-02-10T09:05:48Z</time>
      </trkpt>
      <trkpt lat="42.56192" lon="1.94959">
        <ele>2387.09</ele>
        <time>2017-02-10T09:05:49Z</time>
      </trkpt>
      <trkpt lat="42.562" lon="1.94922">
        <ele>2392.38</ele>
        <time>2017-02-10T09:06:48Z</time>
      </trkpt>
      <trkpt lat="42.56208" lon="1.94899">
        <ele>2396.7</ele>
        <time>2017-02-10T09:07:25Z</time>
      </trkpt>
      <trkpt lat="42.56219" lon="1.94881">
        <ele>2401.99</ele>
        <time>2017-02-10T09:08:04Z</time>
      </trkpt>
      <trkpt lat="42.56214" lon="1.94855">
        <ele>2406.8</ele>
        <time>2017-02-10T09:08:44Z</time>
      </trkpt>
      <trkpt lat="42.56204" lon="1.9484">
        <ele>2411.12</ele>
        <time>2017-02-10T09:09:21Z</time>
      </trkpt>
      <trkpt lat="42.56195" lon="1.94821">
        <ele>2416.89</ele>
        <time>2017-02-10T09:09:59Z</time>
      </trkpt>
      <trkpt lat="42.56193" lon="1.94786">
        <ele>2421.7</ele>
        <time>2017-02-10T09:10:51Z</time>
      </trkpt>
      <trkpt lat="42.56196" lon="1.94769">
        <ele>2425.06</ele>
        <time>2017-02-10T09:11:28Z</time>
      </trkpt>
      <trkpt lat="42.56209" lon="1.94733">
        <ele>2431.31</ele>
        <time>2017-02-10T09:12:15Z</time>
      </trkpt>
      <trkpt lat="42.56235" lon="1.94702">
        <ele>2438.52</ele>
        <time>2017-02-10T09:14:28Z</time>
      </trkpt>
      <trkpt lat="42.56253" lon="1.94689">
        <ele>2442.85</ele>
        <time>2017-02-10T09:15:02Z</time>
      </trkpt>
      <trkpt lat="42.56261" lon="1.9468">
        <ele>2446.21</ele>
        <time>2017-02-10T09:15:22Z</time>
      </trkpt>
      <trkpt lat="42.56279" lon="1.94667">
        <ele>2450.54</ele>
        <time>2017-02-10T09:16:00Z</time>
      </trkpt>
      <trkpt lat="42.56294" lon="1.94647">
        <ele>2454.38</ele>
        <time>2017-02-10T09:16:39Z</time>
      </trkpt>
      <trkpt lat="42.56299" lon="1.94633">
        <ele>2455.82</ele>
        <time>2017-02-10T09:16:57Z</time>
      </trkpt>
      <trkpt lat="42.56299" lon="1.94632">
        <ele>2455.82</ele>
        <time>2017-02-10T09:16:58Z</time>
      </trkpt>
      <trkpt lat="42.56365" lon="1.94393">
        <ele>2461.59</ele>
        <time>2017-02-10T09:20:20Z</time>
      </trkpt>
      <trkpt lat="42.56371" lon="1.94363">
        <ele>2466.4</ele>
        <time>2017-02-10T09:20:57Z</time>
      </trkpt>
      <trkpt lat="42.56374" lon="1.94334">
        <ele>2471.21</ele>
        <time>2017-02-10T09:21:39Z</time>
      </trkpt>
      <trkpt lat="42.56381" lon="1.94313">
        <ele>2475.05</ele>
        <time>2017-02-10T09:22:27Z</time>
      </trkpt>
      <trkpt lat="42.56382" lon="1.94313">
        <ele>2475.05</ele>
        <time>2017-02-10T09:22:50Z</time>
      </trkpt>
      <trkpt lat="42.56396" lon="1.94291">
        <ele>2479.86</ele>
        <time>2017-02-10T09:24:33Z</time>
      </trkpt>
      <trkpt lat="42.56409" lon="1.94281">
        <ele>2484.66</ele>
        <time>2017-02-10T09:31:19Z</time>
      </trkpt>
      <trkpt lat="42.56424" lon="1.94238">
        <ele>2488.03</ele>
        <time>2017-02-10T09:32:09Z</time>
      </trkpt>
      <trkpt lat="42.56466" lon="1.94173">
        <ele>2491.87</ele>
        <time>2017-02-10T09:33:39Z</time>
      </trkpt>
      <trkpt lat="42.56491" lon="1.94152">
        <ele>2495.72</ele>
        <time>2017-02-10T09:34:23Z</time>
      </trkpt>
      <trkpt lat="42.56513" lon="1.94124">
        <ele>2499.57</ele>
        <time>2017-02-10T09:35:05Z</time>
      </trkpt>
      <trkpt lat="42.56527" lon="1.94104">
        <ele>2503.41</ele>
        <time>2017-02-10T09:35:40Z</time>
      </trkpt>
      <trkpt lat="42.56539" lon="1.9408">
        <ele>2508.7</ele>
        <time>2017-02-10T09:36:22Z</time>
      </trkpt>
      <trkpt lat="42.56543" lon="1.94051">
        <ele>2514.47</ele>
        <time>2017-02-10T09:37:31Z</time>
      </trkpt>
      <trkpt lat="42.5656" lon="1.94039">
        <ele>2520.23</ele>
        <time>2017-02-10T09:38:09Z</time>
      </trkpt>
      <trkpt lat="42.56573" lon="1.94055">
        <ele>2524.08</ele>
        <time>2017-02-10T09:38:44Z</time>
      </trkpt>
      <trkpt lat="42.56575" lon="1.94061">
        <ele>2524.08</ele>
        <time>2017-02-10T09:38:51Z</time>
      </trkpt>
      <trkpt lat="42.56631" lon="1.94058">
        <ele>2528.4</ele>
        <time>2017-02-10T09:40:02Z</time>
      </trkpt>
      <trkpt lat="42.56687" lon="1.93967">
        <ele>2536.1</ele>
        <time>2017-02-10T09:42:19Z</time>
      </trkpt>
      <trkpt lat="42.56686" lon="1.93939">
        <ele>2541.38</ele>
        <time>2017-02-10T09:42:55Z</time>
      </trkpt>
      <trkpt lat="42.56707" lon="1.93939">
        <ele>2545.23</ele>
        <time>2017-02-10T09:43:30Z</time>
      </trkpt>
      <trkpt lat="42.56715" lon="1.93916">
        <ele>2551</ele>
        <time>2017-02-10T09:44:10Z</time>
      </trkpt>
      <trkpt lat="42.56723" lon="1.9388">
        <ele>2555.32</ele>
        <time>2017-02-10T09:44:48Z</time>
      </trkpt>
      <trkpt lat="42.56727" lon="1.93841">
        <ele>2559.17</ele>
        <time>2017-02-10T09:45:27Z</time>
      </trkpt>
      <trkpt lat="42.56722" lon="1.93648">
        <ele>2566.86</ele>
        <time>2017-02-10T09:49:32Z</time>
      </trkpt>
      <trkpt lat="42.5672" lon="1.9361">
        <ele>2574.07</ele>
        <time>2017-02-10T09:51:28Z</time>
      </trkpt>
      <trkpt lat="42.56726" lon="1.93572">
        <ele>2580.32</ele>
        <time>2017-02-10T09:57:34Z</time>
      </trkpt>
      <trkpt lat="42.56724" lon="1.93518">
        <ele>2593.29</ele>
        <time>2017-02-10T09:59:04Z</time>
      </trkpt>
      <trkpt lat="42.56719" lon="1.93457">
        <ele>2604.35</ele>
        <time>2017-02-10T10:00:21Z</time>
      </trkpt>
      <trkpt lat="42.56719" lon="1.93456">
        <ele>2604.35</ele>
        <time>2017-02-10T10:00:22Z</time>
      </trkpt>
      <trkpt lat="42.56718" lon="1.93427">
        <ele>2609.16</ele>
        <time>2017-02-10T10:02:21Z</time>
      </trkpt>
      <trkpt lat="42.56729" lon="1.93399">
        <ele>2608.67</ele>
        <time>2017-02-10T10:21:01Z</time>
      </trkpt>
      <trkpt lat="42.56751" lon="1.93371">
        <ele>2606.27</ele>
        <time>2017-02-10T10:27:15Z</time>
      </trkpt>
      <trkpt lat="42.5673" lon="1.93416">
        <ele>2594.74</ele>
        <time>2017-02-10T10:34:45Z</time>
      </trkpt>
      <trkpt lat="42.56744" lon="1.93556">
        <ele>2594.25</ele>
        <time>2017-02-10T11:35:01Z</time>
      </trkpt>
      <trkpt lat="42.5676" lon="1.936">
        <ele>2587.53</ele>
        <time>2017-02-10T11:35:17Z</time>
      </trkpt>
      <trkpt lat="42.56779" lon="1.93639">
        <ele>2582.72</ele>
        <time>2017-02-10T11:35:31Z</time>
      </trkpt>
      <trkpt lat="42.56787" lon="1.93656">
        <ele>2578.87</ele>
        <time>2017-02-10T11:35:36Z</time>
      </trkpt>
      <trkpt lat="42.56791" lon="1.93673">
        <ele>2576.47</ele>
        <time>2017-02-10T11:35:40Z</time>
      </trkpt>
      <trkpt lat="42.56771" lon="1.93744">
        <ele>2570.7</ele>
        <time>2017-02-10T11:36:00Z</time>
      </trkpt>
      <trkpt lat="42.56763" lon="1.93826">
        <ele>2567.34</ele>
        <time>2017-02-10T11:37:05Z</time>
      </trkpt>
      <trkpt lat="42.5676" lon="1.93849">
        <ele>2563.97</ele>
        <time>2017-02-10T11:37:12Z</time>
      </trkpt>
      <trkpt lat="42.5676" lon="1.93855">
        <ele>2563.97</ele>
        <time>2017-02-10T11:37:13Z</time>
      </trkpt>
      <trkpt lat="42.56754" lon="1.93878">
        <ele>2560.61</ele>
        <time>2017-02-10T11:37:17Z</time>
      </trkpt>
      <trkpt lat="42.56733" lon="1.93948">
        <ele>2553.88</ele>
        <time>2017-02-10T11:37:33Z</time>
      </trkpt>
      <trkpt lat="42.56723" lon="1.93981">
        <ele>2550.51</ele>
        <time>2017-02-10T11:37:39Z</time>
      </trkpt>
      <trkpt lat="42.56709" lon="1.94017">
        <ele>2547.15</ele>
        <time>2017-02-10T11:37:46Z</time>
      </trkpt>
      <trkpt lat="42.56685" lon="1.9405">
        <ele>2540.9</ele>
        <time>2017-02-10T11:37:58Z</time>
      </trkpt>
      <trkpt lat="42.56684" lon="1.94053">
        <ele>2542.34</ele>
        <time>2017-02-10T11:38:23Z</time>
      </trkpt>
      <trkpt lat="42.5667" lon="1.94048">
        <ele>2537.54</ele>
        <time>2017-02-10T11:38:35Z</time>
      </trkpt>
      <trkpt lat="42.56649" lon="1.94057">
        <ele>2533.69</ele>
        <time>2017-02-10T11:38:39Z</time>
      </trkpt>
      <trkpt lat="42.56616" lon="1.94067">
        <ele>2526.96</ele>
        <time>2017-02-10T11:38:45Z</time>
      </trkpt>
      <trkpt lat="42.56611" lon="1.94069">
        <ele>2526.48</ele>
        <time>2017-02-10T11:38:46Z</time>
      </trkpt>
      <trkpt lat="42.5659" lon="1.9407">
        <ele>2522.16</ele>
        <time>2017-02-10T11:38:50Z</time>
      </trkpt>
      <trkpt lat="42.56568" lon="1.94126">
        <ele>2513.98</ele>
        <time>2017-02-10T11:38:59Z</time>
      </trkpt>
      <trkpt lat="42.56553" lon="1.94122">
        <ele>2509.18</ele>
        <time>2017-02-10T11:39:02Z</time>
      </trkpt>
      <trkpt lat="42.56542" lon="1.94099">
        <ele>2505.81</ele>
        <time>2017-02-10T11:39:05Z</time>
      </trkpt>
      <trkpt lat="42.56524" lon="1.94084">
        <ele>2501.97</ele>
        <time>2017-02-10T11:39:11Z</time>
      </trkpt>
      <trkpt lat="42.56514" lon="1.9409">
        <ele>2498.6</ele>
        <time>2017-02-10T11:39:13Z</time>
      </trkpt>
      <trkpt lat="42.56497" lon="1.94095">
        <ele>2495.24</ele>
        <time>2017-02-10T11:39:16Z</time>
      </trkpt>
      <trkpt lat="42.56477" lon="1.94081">
        <ele>2489.95</ele>
        <time>2017-02-10T11:39:19Z</time>
      </trkpt>
      <trkpt lat="42.5647" lon="1.94075">
        <ele>2490.43</ele>
        <time>2017-02-10T11:39:20Z</time>
      </trkpt>
      <trkpt lat="42.56431" lon="1.94081">
        <ele>2481.78</ele>
        <time>2017-02-10T11:39:26Z</time>
      </trkpt>
      <trkpt lat="42.56411" lon="1.94103">
        <ele>2478.42</ele>
        <time>2017-02-10T11:39:30Z</time>
      </trkpt>
      <trkpt lat="42.56387" lon="1.94178">
        <ele>2478.42</ele>
        <time>2017-02-10T11:39:45Z</time>
      </trkpt>
      <trkpt lat="42.56342" lon="1.94312">
        <ele>2471.69</ele>
        <time>2017-02-10T11:41:03Z</time>
      </trkpt>
      <trkpt lat="42.56331" lon="1.94348">
        <ele>2468.8</ele>
        <time>2017-02-10T11:41:10Z</time>
      </trkpt>
      <trkpt lat="42.56315" lon="1.94397">
        <ele>2463.04</ele>
        <time>2017-02-10T11:41:17Z</time>
      </trkpt>
      <trkpt lat="42.56312" lon="1.94402">
        <ele>2463.04</ele>
        <time>2017-02-10T11:41:18Z</time>
      </trkpt>
      <trkpt lat="42.56298" lon="1.94468">
        <ele>2454.86</ele>
        <time>2017-02-10T11:41:29Z</time>
      </trkpt>
      <trkpt lat="42.56256" lon="1.94593">
        <ele>2450.06</ele>
        <time>2017-02-10T11:42:58Z</time>
      </trkpt>
      <trkpt lat="42.56255" lon="1.94594">
        <ele>2450.06</ele>
        <time>2017-02-10T11:43:34Z</time>
      </trkpt>
      <trkpt lat="42.56226" lon="1.94611">
        <ele>2442.37</ele>
        <time>2017-02-10T11:43:43Z</time>
      </trkpt>
      <trkpt lat="42.56216" lon="1.94622">
        <ele>2438.04</ele>
        <time>2017-02-10T11:43:45Z</time>
      </trkpt>
      <trkpt lat="42.5621" lon="1.94629">
        <ele>2434.68</ele>
        <time>2017-02-10T11:43:46Z</time>
      </trkpt>
      <trkpt lat="42.56172" lon="1.9467">
        <ele>2423.62</ele>
        <time>2017-02-10T11:43:53Z</time>
      </trkpt>
      <trkpt lat="42.56166" lon="1.94673">
        <ele>2423.62</ele>
        <time>2017-02-10T11:43:54Z</time>
      </trkpt>
      <trkpt lat="42.56151" lon="1.94688">
        <ele>2419.78</ele>
        <time>2017-02-10T11:43:57Z</time>
      </trkpt>
      <trkpt lat="42.56144" lon="1.94673">
        <ele>2419.78</ele>
        <time>2017-02-10T11:44:26Z</time>
      </trkpt>
      <trkpt lat="42.56127" lon="1.94674">
        <ele>2416.41</ele>
        <time>2017-02-10T11:44:32Z</time>
      </trkpt>
      <trkpt lat="42.56109" lon="1.94671">
        <ele>2412.57</ele>
        <time>2017-02-10T11:44:35Z</time>
      </trkpt>
      <trkpt lat="42.56097" lon="1.94652">
        <ele>2407.28</ele>
        <time>2017-02-10T11:44:38Z</time>
      </trkpt>
      <trkpt lat="42.56062" lon="1.94627">
        <ele>2402.47</ele>
        <time>2017-02-10T11:44:47Z</time>
      </trkpt>
      <trkpt lat="42.56048" lon="1.94628">
        <ele>2398.15</ele>
        <time>2017-02-10T11:44:49Z</time>
      </trkpt>
      <trkpt lat="42.56023" lon="1.94631">
        <ele>2394.78</ele>
        <time>2017-02-10T11:44:53Z</time>
      </trkpt>
      <trkpt lat="42.55979" lon="1.94652">
        <ele>2387.57</ele>
        <time>2017-02-10T11:44:59Z</time>
      </trkpt>
      <trkpt lat="42.55948" lon="1.94653">
        <ele>2383.25</ele>
        <time>2017-02-10T11:45:03Z</time>
      </trkpt>
      <trkpt lat="42.55779" lon="1.94632">
        <ele>2377</ele>
        <time>2017-02-10T11:45:46Z</time>
      </trkpt>
      <trkpt lat="42.55761" lon="1.94649">
        <ele>2373.63</ele>
        <time>2017-02-10T11:45:50Z</time>
      </trkpt>
      <trkpt lat="42.55735" lon="1.94668">
        <ele>2367.86</ele>
        <time>2017-02-10T11:45:55Z</time>
      </trkpt>
      <trkpt lat="42.55729" lon="1.94671">
        <ele>2367.86</ele>
        <time>2017-02-10T11:45:56Z</time>
      </trkpt>
      <trkpt lat="42.55714" lon="1.94691">
        <ele>2364.5</ele>
        <time>2017-02-10T11:45:59Z</time>
      </trkpt>
      <trkpt lat="42.55695" lon="1.94724">
        <ele>2360.17</ele>
        <time>2017-02-10T11:46:03Z</time>
      </trkpt>
      <trkpt lat="42.5567" lon="1.94732">
        <ele>2355.37</ele>
        <time>2017-02-10T11:46:07Z</time>
      </trkpt>
      <trkpt lat="42.55643" lon="1.94731">
        <ele>2351.04</ele>
        <time>2017-02-10T11:46:11Z</time>
      </trkpt>
      <trkpt lat="42.55567" lon="1.94715">
        <ele>2343.83</ele>
        <time>2017-02-10T11:46:25Z</time>
      </trkpt>
      <trkpt lat="42.55563" lon="1.94712">
        <ele>2345.75</ele>
        <time>2017-02-10T11:46:37Z</time>
      </trkpt>
      <trkpt lat="42.5554" lon="1.94681">
        <ele>2344.79</ele>
        <time>2017-02-10T11:47:43Z</time>
      </trkpt>
      <trkpt lat="42.55543" lon="1.94723">
        <ele>2340.47</ele>
        <time>2017-02-10T11:48:01Z</time>
      </trkpt>
      <trkpt lat="42.5553" lon="1.94759">
        <ele>2336.62</ele>
        <time>2017-02-10T11:48:10Z</time>
      </trkpt>
      <trkpt lat="42.55517" lon="1.94781">
        <ele>2332.3</ele>
        <time>2017-02-10T11:48:15Z</time>
      </trkpt>
      <trkpt lat="42.55505" lon="1.94783">
        <ele>2326.05</ele>
        <time>2017-02-10T11:48:18Z</time>
      </trkpt>
      <trkpt lat="42.55481" lon="1.94772">
        <ele>2317.88</ele>
        <time>2017-02-10T11:48:26Z</time>
      </trkpt>
      <trkpt lat="42.55477" lon="1.94769">
        <ele>2314.03</ele>
        <time>2017-02-10T11:48:27Z</time>
      </trkpt>
      <trkpt lat="42.55469" lon="1.94764">
        <ele>2313.55</ele>
        <time>2017-02-10T11:48:29Z</time>
      </trkpt>
      <trkpt lat="42.55458" lon="1.94763">
        <ele>2307.3</ele>
        <time>2017-02-10T11:48:31Z</time>
      </trkpt>
      <trkpt lat="42.55449" lon="1.94771">
        <ele>2303.94</ele>
        <time>2017-02-10T11:48:33Z</time>
      </trkpt>
      <trkpt lat="42.5543" lon="1.9477">
        <ele>2293.84</ele>
        <time>2017-02-10T11:48:40Z</time>
      </trkpt>
      <trkpt lat="42.55426" lon="1.94764">
        <ele>2293.36</ele>
        <time>2017-02-10T11:49:00Z</time>
      </trkpt>
      <trkpt lat="42.55412" lon="1.94779">
        <ele>2290</ele>
        <time>2017-02-10T11:49:05Z</time>
      </trkpt>
      <trkpt lat="42.55372" lon="1.94818">
        <ele>2284.23</ele>
        <time>2017-02-10T11:49:13Z</time>
      </trkpt>
      <trkpt lat="42.55325" lon="1.94841">
        <ele>2278.94</ele>
        <time>2017-02-10T11:49:23Z</time>
      </trkpt>
      <trkpt lat="42.55285" lon="1.9485">
        <ele>2275.58</ele>
        <time>2017-02-10T11:49:33Z</time>
      </trkpt>
      <trkpt lat="42.55276" lon="1.94853">
        <ele>2275.1</ele>
        <time>2017-02-10T11:49:36Z</time>
      </trkpt>
      <trkpt lat="42.5527" lon="1.9484">
        <ele>2271.25</ele>
        <time>2017-02-10T11:49:40Z</time>
      </trkpt>
      <trkpt lat="42.55267" lon="1.94832">
        <ele>2271.25</ele>
        <time>2017-02-10T11:49:42Z</time>
      </trkpt>
      <trkpt lat="42.55253" lon="1.94819">
        <ele>2266.93</ele>
        <time>2017-02-10T11:49:46Z</time>
      </trkpt>
      <trkpt lat="42.55249" lon="1.94814">
        <ele>2266.93</ele>
        <time>2017-02-10T11:49:47Z</time>
      </trkpt>
      <trkpt lat="42.55219" lon="1.94837">
        <ele>2263.56</ele>
        <time>2017-02-10T11:49:54Z</time>
      </trkpt>
      <trkpt lat="42.55217" lon="1.94843">
        <ele>2263.08</ele>
        <time>2017-02-10T11:49:55Z</time>
      </trkpt>
      <trkpt lat="42.55204" lon="1.94878">
        <ele>2259.72</ele>
        <time>2017-02-10T11:50:01Z</time>
      </trkpt>
      <trkpt lat="42.55198" lon="1.94909">
        <ele>2257.31</ele>
        <time>2017-02-10T11:50:44Z</time>
      </trkpt>
      <trkpt lat="42.55177" lon="1.94934">
        <ele>2253.47</ele>
        <time>2017-02-10T11:50:50Z</time>
      </trkpt>
      <trkpt lat="42.55166" lon="1.94957">
        <ele>2246.74</ele>
        <time>2017-02-10T11:50:53Z</time>
      </trkpt>
      <trkpt lat="42.55154" lon="1.94973">
        <ele>2239.53</ele>
        <time>2017-02-10T11:50:57Z</time>
      </trkpt>
      <trkpt lat="42.55135" lon="1.94993">
        <ele>2234.24</ele>
        <time>2017-02-10T11:51:02Z</time>
      </trkpt>
      <trkpt lat="42.55085" lon="1.95048">
        <ele>2227.51</ele>
        <time>2017-02-10T11:51:11Z</time>
      </trkpt>
      <trkpt lat="42.55062" lon="1.95106">
        <ele>2222.22</ele>
        <time>2017-02-10T11:53:03Z</time>
      </trkpt>
      <trkpt lat="42.55051" lon="1.95136">
        <ele>2218.86</ele>
        <time>2017-02-10T11:53:07Z</time>
      </trkpt>
      <trkpt lat="42.55033" lon="1.95244">
        <ele>2212.13</ele>
        <time>2017-02-10T11:53:21Z</time>
      </trkpt>
      <trkpt lat="42.55008" lon="1.95367">
        <ele>2206.36</ele>
        <time>2017-02-10T11:53:41Z</time>
      </trkpt>
      <trkpt lat="42.55009" lon="1.95459">
        <ele>2201.56</ele>
        <time>2017-02-10T11:53:56Z</time>
      </trkpt>
      <trkpt lat="42.5501" lon="1.95493">
        <ele>2199.63</ele>
        <time>2017-02-10T11:54:03Z</time>
      </trkpt>
      <trkpt lat="42.5503" lon="1.95543">
        <ele>2196.27</ele>
        <time>2017-02-10T11:54:16Z</time>
      </trkpt>
      <trkpt lat="42.55033" lon="1.95583">
        <ele>2192.9</ele>
        <time>2017-02-10T11:54:24Z</time>
      </trkpt>
      <trkpt lat="42.55032" lon="1.95622">
        <ele>2186.66</ele>
        <time>2017-02-10T11:54:29Z</time>
      </trkpt>
      <trkpt lat="42.55038" lon="1.95639">
        <ele>2183.29</ele>
        <time>2017-02-10T11:54:31Z</time>
      </trkpt>
      <trkpt lat="42.55029" lon="1.95705">
        <ele>2178.48</ele>
        <time>2017-02-10T11:54:38Z</time>
      </trkpt>
      <trkpt lat="42.55028" lon="1.95714">
        <ele>2178.48</ele>
        <time>2017-02-10T11:54:39Z</time>
      </trkpt>
      <trkpt lat="42.55034" lon="1.95766">
        <ele>2175.12</ele>
        <time>2017-02-10T11:54:45Z</time>
      </trkpt>
      <trkpt lat="42.55032" lon="1.95823">
        <ele>2170.31</ele>
        <time>2017-02-10T11:54:51Z</time>
      </trkpt>
      <trkpt lat="42.55015" lon="1.95944">
        <ele>2165.03</ele>
        <time>2017-02-10T11:55:32Z</time>
      </trkpt>
      <trkpt lat="42.55004" lon="1.96016">
        <ele>2158.3</ele>
        <time>2017-02-10T11:55:42Z</time>
      </trkpt>
      <trkpt lat="42.55002" lon="1.96023">
        <ele>2158.3</ele>
        <time>2017-02-10T11:55:43Z</time>
      </trkpt>
      <trkpt lat="42.54992" lon="1.96088">
        <ele>2151.57</ele>
        <time>2017-02-10T11:55:51Z</time>
      </trkpt>
      <trkpt lat="42.54977" lon="1.96142">
        <ele>2148.2</ele>
        <time>2017-02-10T11:55:58Z</time>
      </trkpt>
      <trkpt lat="42.54918" lon="1.96387">
        <ele>2145.32</ele>
        <time>2017-02-10T11:57:15Z</time>
      </trkpt>
      <trkpt lat="42.54878" lon="1.96415">
        <ele>2141.95</ele>
        <time>2017-02-10T11:57:57Z</time>
      </trkpt>
      <trkpt lat="42.54861" lon="1.96429">
        <ele>2137.15</ele>
        <time>2017-02-10T12:01:55Z</time>
      </trkpt>
      <trkpt lat="42.54837" lon="1.96443">
        <ele>2132.82</ele>
        <time>2017-02-10T12:02:02Z</time>
      </trkpt>
      <trkpt lat="42.54823" lon="1.96454">
        <ele>2129.46</ele>
        <time>2017-02-10T12:02:05Z</time>
      </trkpt>
      <trkpt lat="42.54799" lon="1.96474">
        <ele>2122.73</ele>
        <time>2017-02-10T12:02:10Z</time>
      </trkpt>
      <trkpt lat="42.54795" lon="1.96481">
        <ele>2122.73</ele>
        <time>2017-02-10T12:02:11Z</time>
      </trkpt>
      <trkpt lat="42.54785" lon="1.9649">
        <ele>2118.88</ele>
        <time>2017-02-10T12:02:13Z</time>
      </trkpt>
      <trkpt lat="42.54766" lon="1.96498">
        <ele>2114.08</ele>
        <time>2017-02-10T12:02:17Z</time>
      </trkpt>
      <trkpt lat="42.54747" lon="1.96518">
        <ele>2108.31</ele>
        <time>2017-02-10T12:02:21Z</time>
      </trkpt>
      <trkpt lat="42.5473" lon="1.96525">
        <ele>2105.91</ele>
        <time>2017-02-10T12:02:24Z</time>
      </trkpt>
      <trkpt lat="42.54712" lon="1.96533">
        <ele>2101.1</ele>
        <time>2017-02-10T12:02:27Z</time>
      </trkpt>
      <trkpt lat="42.54706" lon="1.96536">
        <ele>2101.58</ele>
        <time>2017-02-10T12:02:28Z</time>
      </trkpt>
      <trkpt lat="42.54694" lon="1.96561">
        <ele>2098.21</ele>
        <time>2017-02-10T12:02:31Z</time>
      </trkpt>
      <trkpt lat="42.54684" lon="1.96574">
        <ele>2094.85</ele>
        <time>2017-02-10T12:02:33Z</time>
      </trkpt>
      <trkpt lat="42.54634" lon="1.96634">
        <ele>2090.04</ele>
        <time>2017-02-10T12:02:43Z</time>
      </trkpt>
      <trkpt lat="42.54609" lon="1.96673">
        <ele>2084.28</ele>
        <time>2017-02-10T12:02:49Z</time>
      </trkpt>
      <trkpt lat="42.54579" lon="1.96693">
        <ele>2080.91</ele>
        <time>2017-02-10T12:02:54Z</time>
      </trkpt>
      <trkpt lat="42.5454" lon="1.96717">
        <ele>2080.91</ele>
        <time>2017-02-10T12:03:47Z</time>
      </trkpt>
      <trkpt lat="42.54524" lon="1.96735">
        <ele>2076.59</ele>
        <time>2017-02-10T12:03:54Z</time>
      </trkpt>
      <trkpt lat="42.5451" lon="1.96735">
        <ele>2073.22</ele>
        <time>2017-02-10T12:03:57Z</time>
      </trkpt>
      <trkpt lat="42.54485" lon="1.96747">
        <ele>2069.86</ele>
        <time>2017-02-10T12:04:06Z</time>
      </trkpt>
      <trkpt lat="42.54483" lon="1.96747">
        <ele>2069.86</ele>
        <time>2017-02-10T12:04:27Z</time>
      </trkpt>
      <trkpt lat="42.5444" lon="1.96761">
        <ele>2060.72</ele>
        <time>2017-02-10T12:04:37Z</time>
      </trkpt>
      <trkpt lat="42.544" lon="1.96792">
        <ele>2052.55</ele>
        <time>2017-02-10T12:04:45Z</time>
      </trkpt>
      <trkpt lat="42.54382" lon="1.96784">
        <ele>2053.03</ele>
        <time>2017-02-10T12:04:50Z</time>
      </trkpt>
      <trkpt lat="42.54365" lon="1.96798">
        <ele>2049.67</ele>
        <time>2017-02-10T12:04:56Z</time>
      </trkpt>
      <trkpt lat="42.54338" lon="1.96844">
        <ele>2043.9</ele>
        <time>2017-02-10T12:05:05Z</time>
      </trkpt>
      <trkpt lat="42.54321" lon="1.96857">
        <ele>2039.57</ele>
        <time>2017-02-10T12:05:09Z</time>
      </trkpt>
      <trkpt lat="42.54318" lon="1.96859">
        <ele>2039.57</ele>
        <time>2017-02-10T12:05:10Z</time>
      </trkpt>
      <trkpt lat="42.54292" lon="1.96876">
        <ele>2037.65</ele>
        <time>2017-02-10T12:06:52Z</time>
      </trkpt>
      <trkpt lat="42.5427" lon="1.9689">
        <ele>2033.33</ele>
        <time>2017-02-10T12:06:59Z</time>
      </trkpt>
      <trkpt lat="42.54253" lon="1.96905">
        <ele>2029.96</ele>
        <time>2017-02-10T12:07:04Z</time>
      </trkpt>
      <trkpt lat="42.54217" lon="1.96963">
        <ele>2026.12</ele>
        <time>2017-02-10T12:07:19Z</time>
      </trkpt>
      <trkpt lat="42.54215" lon="1.96967">
        <ele>2025.64</ele>
        <time>2017-02-10T12:07:20Z</time>
      </trkpt>
      <trkpt lat="42.54205" lon="1.96992">
        <ele>2020.35</ele>
        <time>2017-02-10T12:07:25Z</time>
      </trkpt>
      <trkpt lat="42.54131" lon="1.9703">
        <ele>2017.46</ele>
        <time>2017-02-10T12:08:53Z</time>
      </trkpt>
      <trkpt lat="42.54123" lon="1.97042">
        <ele>2011.7</ele>
        <time>2017-02-10T12:08:56Z</time>
      </trkpt>
      <trkpt lat="42.54114" lon="1.97052">
        <ele>2006.89</ele>
        <time>2017-02-10T12:08:58Z</time>
      </trkpt>
      <trkpt lat="42.54095" lon="1.9711">
        <ele>2000.64</ele>
        <time>2017-02-10T12:09:10Z</time>
      </trkpt>
      <trkpt lat="42.5407" lon="1.97124">
        <ele>1997.28</ele>
        <time>2017-02-10T12:09:29Z</time>
      </trkpt>
      <trkpt lat="42.5406" lon="1.97122">
        <ele>1991.99</ele>
        <time>2017-02-10T12:09:33Z</time>
      </trkpt>
      <trkpt lat="42.54052" lon="1.97123">
        <ele>1986.7</ele>
        <time>2017-02-10T12:09:35Z</time>
      </trkpt>
      <trkpt lat="42.54047" lon="1.97126">
        <ele>1986.7</ele>
        <time>2017-02-10T12:09:36Z</time>
      </trkpt>
      <trkpt lat="42.5402" lon="1.97138">
        <ele>1981.9</ele>
        <time>2017-02-10T12:09:41Z</time>
      </trkpt>
      <trkpt lat="42.53992" lon="1.97151">
        <ele>1978.53</ele>
        <time>2017-02-10T12:09:46Z</time>
      </trkpt>
      <trkpt lat="42.53929" lon="1.97147">
        <ele>1976.13</ele>
        <time>2017-02-10T12:11:42Z</time>
      </trkpt>
      <trkpt lat="42.53916" lon="1.97162">
        <ele>1976.13</ele>
        <time>2017-02-10T12:18:09Z</time>
      </trkpt>
      <trkpt lat="42.53841" lon="1.97137">
        <ele>1968.92</ele>
        <time>2017-02-10T12:18:53Z</time>
      </trkpt>
      <trkpt lat="42.5382" lon="1.97144">
        <ele>1963.63</ele>
        <time>2017-02-10T12:19:04Z</time>
      </trkpt>
      <trkpt lat="42.53755" lon="1.9713">
        <ele>1959.3</ele>
        <time>2017-02-10T12:19:54Z</time>
      </trkpt>
      <trkpt lat="42.53739" lon="1.97123">
        <ele>1955.94</ele>
        <time>2017-02-10T12:20:03Z</time>
      </trkpt>
      <trkpt lat="42.5372" lon="1.97116">
        <ele>1952.09</ele>
        <time>2017-02-10T12:20:17Z</time>
      </trkpt>
      <trkpt lat="42.53713" lon="1.97109">
        <ele>1950.17</ele>
        <time>2017-02-10T12:20:19Z</time>
      </trkpt>
      <trkpt lat="42.537" lon="1.97097">
        <ele>1950.17</ele>
        <time>2017-02-10T12:20:24Z</time>
      </trkpt>
      <trkpt lat="42.53632" lon="1.97066">
        <ele>1944.88</ele>
        <time>2017-02-10T12:20:44Z</time>
      </trkpt>
      <trkpt lat="42.53594" lon="1.97051">
        <ele>1940.56</ele>
        <time>2017-02-10T12:21:05Z</time>
      </trkpt>
      <trkpt lat="42.5359" lon="1.97053">
        <ele>1940.56</ele>
        <time>2017-02-10T12:22:23Z</time>
      </trkpt>
      <trkpt lat="42.53581" lon="1.97064">
        <ele>1937.19</ele>
        <time>2017-02-10T12:22:28Z</time>
      </trkpt>
      <trkpt lat="42.53572" lon="1.97067">
        <ele>1936.23</ele>
        <time>2017-02-10T12:22:42Z</time>
      </trkpt>
      <trkpt lat="42.53568" lon="1.97094">
        <ele>1931.91</ele>
        <time>2017-02-10T12:22:50Z</time>
      </trkpt>
      <trkpt lat="42.53566" lon="1.97098">
        <ele>1931.91</ele>
        <time>2017-02-10T12:22:51Z</time>
      </trkpt>
      <trkpt lat="42.53563" lon="1.97108">
        <ele>1928.54</ele>
        <time>2017-02-10T12:23:03Z</time>
      </trkpt>
      <trkpt lat="42.53547" lon="1.97114">
        <ele>1924.22</ele>
        <time>2017-02-10T12:23:08Z</time>
      </trkpt>
      <trkpt lat="42.53502" lon="1.97126">
        <ele>1917.97</ele>
        <time>2017-02-10T12:23:38Z</time>
      </trkpt>
      <trkpt lat="42.53463" lon="1.97136">
        <ele>1912.68</ele>
        <time>2017-02-10T12:24:00Z</time>
      </trkpt>
      <trkpt lat="42.53432" lon="1.97177">
        <ele>1908.35</ele>
        <time>2017-02-10T12:24:40Z</time>
      </trkpt>
      <trkpt lat="42.53431" lon="1.97203">
        <ele>1904.03</ele>
        <time>2017-02-10T12:24:51Z</time>
      </trkpt>
      <trkpt lat="42.53433" lon="1.97209">
        <ele>1905.47</ele>
        <time>2017-02-10T12:25:02Z</time>
      </trkpt>
      <trkpt lat="42.53435" lon="1.9722">
        <ele>1907.39</ele>
        <time>2017-02-10T12:25:30Z</time>
      </trkpt>
      <trkpt lat="42.53401" lon="1.97251">
        <ele>1904.03</ele>
        <time>2017-02-10T12:25:56Z</time>
      </trkpt>
      <trkpt lat="42.53399" lon="1.97255">
        <ele>1904.03</ele>
        <time>2017-02-10T12:25:58Z</time>
      </trkpt>
      <trkpt lat="42.53384" lon="1.9727">
        <ele>1899.22</ele>
        <time>2017-02-10T12:26:02Z</time>
      </trkpt>
      <trkpt lat="42.5337" lon="1.97285">
        <ele>1897.3</ele>
        <time>2017-02-10T12:27:29Z</time>
      </trkpt>
      <trkpt lat="42.53384" lon="1.97331">
        <ele>1889.13</ele>
        <time>2017-02-10T12:27:44Z</time>
      </trkpt>
      <trkpt lat="42.53362" lon="1.97324">
        <ele>1885.28</ele>
        <time>2017-02-10T12:27:51Z</time>
      </trkpt>
      <trkpt lat="42.53328" lon="1.9732">
        <ele>1877.11</ele>
        <time>2017-02-10T12:28:04Z</time>
      </trkpt>
      <trkpt lat="42.53325" lon="1.97321">
        <ele>1877.11</ele>
        <time>2017-02-10T12:28:05Z</time>
      </trkpt>
      <trkpt lat="42.53306" lon="1.97337">
        <ele>1867.5</ele>
        <time>2017-02-10T12:28:11Z</time>
      </trkpt>
      <trkpt lat="42.53301" lon="1.97334">
        <ele>1867.98</ele>
        <time>2017-02-10T12:28:17Z</time>
      </trkpt>
      <trkpt lat="42.53287" lon="1.97345">
        <ele>1864.13</ele>
        <time>2017-02-10T12:28:24Z</time>
      </trkpt>
      <trkpt lat="42.53276" lon="1.97367">
        <ele>1859.81</ele>
        <time>2017-02-10T12:28:27Z</time>
      </trkpt>
      <trkpt lat="42.53243" lon="1.97395">
        <ele>1852.6</ele>
        <time>2017-02-10T12:28:35Z</time>
      </trkpt>
      <trkpt lat="42.53237" lon="1.97436">
        <ele>1848.75</ele>
        <time>2017-02-10T12:29:17Z</time>
      </trkpt>
      <trkpt lat="42.53231" lon="1.97456">
        <ele>1844.43</ele>
        <time>2017-02-10T12:29:40Z</time>
      </trkpt>
      <trkpt lat="42.53232" lon="1.97495">
        <ele>1838.18</ele>
        <time>2017-02-10T12:29:45Z</time>
      </trkpt>
      <trkpt lat="42.53224" lon="1.97523">
        <ele>1833.37</ele>
        <time>2017-02-10T12:29:52Z</time>
      </trkpt>
      <trkpt lat="42.53225" lon="1.97542">
        <ele>1829.53</ele>
        <time>2017-02-10T12:30:06Z</time>
      </trkpt>
      <trkpt lat="42.53223" lon="1.97543">
        <ele>1829.53</ele>
        <time>2017-02-10T12:30:32Z</time>
      </trkpt>
      <trkpt lat="42.53222" lon="1.97543">
        <ele>1829.05</ele>
        <time>2017-02-10T12:30:34Z</time>
      </trkpt>
      <trkpt lat="42.5321" lon="1.97555">
        <ele>1823.28</ele>
        <time>2017-02-10T12:30:40Z</time>
      </trkpt>
      <trkpt lat="42.53206" lon="1.97554">
        <ele>1823.28</ele>
        <time>2017-02-10T12:30:41Z</time>
      </trkpt>
      <trkpt lat="42.532" lon="1.97567">
        <ele>1819.91</ele>
        <time>2017-02-10T12:30:46Z</time>
      </trkpt>
      <trkpt lat="42.53173" lon="1.97568">
        <ele>1814.15</ele>
        <time>2017-02-10T12:31:00Z</time>
      </trkpt>
      <trkpt lat="42.53172" lon="1.97571">
        <ele>1812.7</ele>
        <time>2017-02-10T12:31:07Z</time>
      </trkpt>
      <trkpt lat="42.53163" lon="1.97581">
        <ele>1808.86</ele>
        <time>2017-02-10T12:31:12Z</time>
      </trkpt>
      <trkpt lat="42.53107" lon="1.97555">
        <ele>1802.61</ele>
        <time>2017-02-10T12:31:38Z</time>
      </trkpt>
      <trkpt lat="42.53104" lon="1.97552">
        <ele>1802.61</ele>
        <time>2017-02-10T12:31:39Z</time>
      </trkpt>
      <trkpt lat="42.53082" lon="1.97528">
        <ele>1799.24</ele>
        <time>2017-02-10T12:31:55Z</time>
      </trkpt>
      <trkpt lat="42.5308" lon="1.97526">
        <ele>1799.24</ele>
        <time>2017-02-10T12:31:56Z</time>
      </trkpt>
      <trkpt lat="42.53067" lon="1.97509">
        <ele>1800.69</ele>
        <time>2017-02-10T12:32:13Z</time>
      </trkpt>
      <trkpt lat="42.53049" lon="1.97505">
        <ele>1794.92</ele>
        <time>2017-02-10T12:32:22Z</time>
      </trkpt>
      <trkpt lat="42.53046" lon="1.97502">
        <ele>1793.96</ele>
        <time>2017-02-10T12:32:24Z</time>
      </trkpt>
      <trkpt lat="42.53" lon="1.97474">
        <ele>1787.23</ele>
        <time>2017-02-10T12:33:35Z</time>
      </trkpt>
      <trkpt lat="42.52998" lon="1.97473">
        <ele>1787.23</ele>
        <time>2017-02-10T12:33:36Z</time>
      </trkpt>
      <trkpt lat="42.52977" lon="1.97459">
        <ele>1785.31</ele>
        <time>2017-02-10T12:34:02Z</time>
      </trkpt>
      <trkpt lat="42.5296" lon="1.97458">
        <ele>1781.94</ele>
        <time>2017-02-10T12:34:12Z</time>
      </trkpt>
      <trkpt lat="42.52958" lon="1.97457">
        <ele>1781.94</ele>
        <time>2017-02-10T12:34:13Z</time>
      </trkpt>
      <trkpt lat="42.52899" lon="1.97433">
        <ele>1774.25</ele>
        <time>2017-02-10T12:34:36Z</time>
      </trkpt>
      <trkpt lat="42.52874" lon="1.97417">
        <ele>1770.89</ele>
        <time>2017-02-10T12:34:43Z</time>
      </trkpt>
      <trkpt lat="42.52858" lon="1.97406">
        <ele>1768.48</ele>
        <time>2017-02-10T12:34:46Z</time>
      </trkpt>
      <trkpt lat="42.52854" lon="1.97402">
        <ele>1768.48</ele>
        <time>2017-02-10T12:34:47Z</time>
      </trkpt>
      <trkpt lat="42.52824" lon="1.97384">
        <ele>1765.12</ele>
        <time>2017-02-10T12:36:26Z</time>
      </trkpt>
      <trkpt lat="42.52815" lon="1.97368">
        <ele>1761.75</ele>
        <time>2017-02-10T12:36:34Z</time>
      </trkpt>
      <trkpt lat="42.52815" lon="1.97352">
        <ele>1758.39</ele>
        <time>2017-02-10T12:36:43Z</time>
      </trkpt>
      <trkpt lat="42.52816" lon="1.9735">
        <ele>1758.39</ele>
        <time>2017-02-10T12:36:44Z</time>
      </trkpt>
      <trkpt lat="42.52815" lon="1.97318">
        <ele>1754.54</ele>
        <time>2017-02-10T12:37:17Z</time>
      </trkpt>
      <trkpt lat="42.52792" lon="1.97242">
        <ele>1749.26</ele>
        <time>2017-02-10T12:37:58Z</time>
      </trkpt>
      <trkpt lat="42.52793" lon="1.97213">
        <ele>1745.89</ele>
        <time>2017-02-10T12:38:10Z</time>
      </trkpt>
      <trkpt lat="42.52783" lon="1.97172">
        <ele>1741.57</ele>
        <time>2017-02-10T12:38:22Z</time>
      </trkpt>
      <trkpt lat="42.52782" lon="1.97162">
        <ele>1740.12</ele>
        <time>2017-02-10T12:38:26Z</time>
      </trkpt>
      <trkpt lat="42.52773" lon="1.97121">
        <ele>1734.84</ele>
        <time>2017-02-10T12:38:41Z</time>
      </trkpt>
      <trkpt lat="42.52772" lon="1.97114">
        <ele>1734.84</ele>
        <time>2017-02-10T12:38:43Z</time>
      </trkpt>
      <trkpt lat="42.52761" lon="1.97054">
        <ele>1729.55</ele>
        <time>2017-02-10T12:39:18Z</time>
      </trkpt>
      <trkpt lat="42.52757" lon="1.97037">
        <ele>1725.7</ele>
        <time>2017-02-10T12:39:23Z</time>
      </trkpt>
      <trkpt lat="42.52752" lon="1.9702">
        <ele>1722.34</ele>
        <time>2017-02-10T12:39:29Z</time>
      </trkpt>
      <trkpt lat="42.52752" lon="1.97019">
        <ele>1722.34</ele>
        <time>2017-02-10T12:39:30Z</time>
      </trkpt>
      <trkpt lat="42.52728" lon="1.96953">
        <ele>1718.49</ele>
        <time>2017-02-10T12:40:07Z</time>
      </trkpt>
      <trkpt lat="42.52723" lon="1.9694">
        <ele>1716.57</ele>
        <time>2017-02-10T12:40:15Z</time>
      </trkpt>
      <trkpt lat="42.52676" lon="1.96861">
        <ele>1711.28</ele>
        <time>2017-02-10T12:41:30Z</time>
      </trkpt>
      <trkpt lat="42.52648" lon="1.96833">
        <ele>1706</ele>
        <time>2017-02-10T12:41:46Z</time>
      </trkpt>
      <trkpt lat="42.52619" lon="1.96816">
        <ele>1699.75</ele>
        <time>2017-02-10T12:43:28Z</time>
      </trkpt>
      <trkpt lat="42.52526" lon="1.9677">
        <ele>1693.98</ele>
        <time>2017-02-10T12:44:57Z</time>
      </trkpt>
      <trkpt lat="42.52454" lon="1.96661">
        <ele>1690.14</ele>
        <time>2017-02-10T12:45:45Z</time>
      </trkpt>
      <trkpt lat="42.52422" lon="1.96595">
        <ele>1686.77</ele>
        <time>2017-02-10T12:46:02Z</time>
      </trkpt>
      <trkpt lat="42.52397" lon="1.96574">
        <ele>1682.93</ele>
        <time>2017-02-10T12:46:09Z</time>
      </trkpt>
      <trkpt lat="42.52393" lon="1.96571">
        <ele>1682.93</ele>
        <time>2017-02-10T12:46:10Z</time>
      </trkpt>
      <trkpt lat="42.52339" lon="1.96521">
        <ele>1679.56</ele>
        <time>2017-02-10T12:47:25Z</time>
      </trkpt>
      <trkpt lat="42.52337" lon="1.96515">
        <ele>1679.56</ele>
        <time>2017-02-10T12:47:26Z</time>
      </trkpt>
      <trkpt lat="42.5233" lon="1.96495">
        <ele>1676.68</ele>
        <time>2017-02-10T12:47:29Z</time>
      </trkpt>
      <trkpt lat="42.52327" lon="1.96489">
        <ele>1676.68</ele>
        <time>2017-02-10T12:47:30Z</time>
      </trkpt>
      <trkpt lat="42.52305" lon="1.96463">
        <ele>1672.83</ele>
        <time>2017-02-10T12:47:37Z</time>
      </trkpt>
      <trkpt lat="42.52263" lon="1.96423">
        <ele>1667.54</ele>
        <time>2017-02-10T12:49:06Z</time>
      </trkpt>
      <trkpt lat="42.52241" lon="1.96382">
        <ele>1662.74</ele>
        <time>2017-02-10T12:50:59Z</time>
      </trkpt>
      <trkpt lat="42.52238" lon="1.96372">
        <ele>1658.41</ele>
        <time>2017-02-10T12:51:00Z</time>
      </trkpt>
      <trkpt lat="42.52222" lon="1.96338">
        <ele>1654.57</ele>
        <time>2017-02-10T12:51:04Z</time>
      </trkpt>
      <trkpt lat="42.52218" lon="1.96334">
        <ele>1654.57</ele>
        <time>2017-02-10T12:51:05Z</time>
      </trkpt>
      <trkpt lat="42.52195" lon="1.96306">
        <ele>1650.72</ele>
        <time>2017-02-10T12:51:14Z</time>
      </trkpt>
      <trkpt lat="42.52173" lon="1.9628">
        <ele>1647.36</ele>
        <time>2017-02-10T12:51:20Z</time>
      </trkpt>
      <trkpt lat="42.5217" lon="1.96277">
        <ele>1647.36</ele>
        <time>2017-02-10T12:51:21Z</time>
      </trkpt>
      <trkpt lat="42.52142" lon="1.9626">
        <ele>1644.95</ele>
        <time>2017-02-10T12:51:29Z</time>
      </trkpt>
      <trkpt lat="42.52139" lon="1.96256">
        <ele>1644.95</ele>
        <time>2017-02-10T12:51:30Z</time>
      </trkpt>
      <trkpt lat="42.52104" lon="1.96224">
        <ele>1641.11</ele>
        <time>2017-02-10T12:52:01Z</time>
      </trkpt>
      <trkpt lat="42.52104" lon="1.96221">
        <ele>1641.11</ele>
        <time>2017-02-10T12:52:02Z</time>
      </trkpt>
      <trkpt lat="42.52071" lon="1.96145">
        <ele>1641.11</ele>
        <time>2017-02-10T12:54:50Z</time>
      </trkpt>
      <trkpt lat="42.5201" lon="1.9604">
        <ele>1634.86</ele>
        <time>2017-02-10T12:55:45Z</time>
      </trkpt>
      <trkpt lat="42.52015" lon="1.95997">
        <ele>1635.34</ele>
        <time>2017-02-10T12:56:39Z</time>
      </trkpt>
      <trkpt lat="42.52003" lon="1.95997">
        <ele>1631.49</ele>
        <time>2017-02-10T12:56:47Z</time>
      </trkpt>
      <trkpt lat="42.51986" lon="1.96009">
        <ele>1627.17</ele>
        <time>2017-02-10T12:56:53Z</time>
      </trkpt>
      <trkpt lat="42.51962" lon="1.95987">
        <ele>1622.36</ele>
        <time>2017-02-10T12:57:00Z</time>
      </trkpt>
      <trkpt lat="42.5189" lon="1.95899">
        <ele>1623.32</ele>
        <time>2017-02-10T12:58:00Z</time>
      </trkpt>
      <trkpt lat="42.51849" lon="1.95868">
        <ele>1623.32</ele>
        <time>2017-02-10T12:59:07Z</time>
      </trkpt>
      <trkpt lat="42.51827" lon="1.95797">
        <ele>1619.96</ele>
        <time>2017-02-10T12:59:55Z</time>
      </trkpt>
      <trkpt lat="42.51824" lon="1.95793">
        <ele>1616.59</ele>
        <time>2017-02-10T13:00:01Z</time>
      </trkpt>
      <trkpt lat="42.51796" lon="1.95741">
        <ele>1610.35</ele>
        <time>2017-02-10T13:00:16Z</time>
      </trkpt>
      <trkpt lat="42.51761" lon="1.95698">
        <ele>1606.02</ele>
        <time>2017-02-10T13:00:55Z</time>
      </trkpt>
      <trkpt lat="42.5172" lon="1.95701">
        <ele>1599.77</ele>
        <time>2017-02-10T13:02:21Z</time>
      </trkpt>
      <trkpt lat="42.51703" lon="1.95698">
        <ele>1596.41</ele>
        <time>2017-02-10T13:02:58Z</time>
      </trkpt>
      <trkpt lat="42.51683" lon="1.95677">
        <ele>1590.64</ele>
        <time>2017-02-10T13:03:36Z</time>
      </trkpt>
      <trkpt lat="42.51678" lon="1.95664">
        <ele>1588.24</ele>
        <time>2017-02-10T13:04:24Z</time>
      </trkpt>
      <trkpt lat="42.51668" lon="1.95647">
        <ele>1584.87</ele>
        <time>2017-02-10T13:04:28Z</time>
      </trkpt>
      <trkpt lat="42.51636" lon="1.9559">
        <ele>1581.03</ele>
        <time>2017-02-10T13:04:40Z</time>
      </trkpt>
      <trkpt lat="42.51629" lon="1.9558">
        <ele>1582.47</ele>
        <time>2017-02-10T13:04:45Z</time>
      </trkpt>
      <trkpt lat="42.51576" lon="1.95564">
        <ele>1578.62</ele>
        <time>2017-02-10T13:06:59Z</time>
      </trkpt>
      <trkpt lat="42.51562" lon="1.95587">
        <ele>1572.37</ele>
        <time>2017-02-10T13:07:50Z</time>
      </trkpt>
      <trkpt lat="42.51542" lon="1.95605">
        <ele>1567.57</ele>
        <time>2017-02-10T13:07:58Z</time>
      </trkpt>
      <trkpt lat="42.51536" lon="1.95654">
        <ele>1563.24</ele>
        <time>2017-02-10T13:08:11Z</time>
      </trkpt>
      <trkpt lat="42.51487" lon="1.95658">
        <ele>1557.47</ele>
        <time>2017-02-10T13:10:53Z</time>
      </trkpt>
      <trkpt lat="42.51482" lon="1.95657">
        <ele>1557.47</ele>
        <time>2017-02-10T13:10:54Z</time>
      </trkpt>
      <trkpt lat="42.51449" lon="1.95649">
        <ele>1554.11</ele>
        <time>2017-02-10T13:11:04Z</time>
      </trkpt>
      <trkpt lat="42.51428" lon="1.95663">
        <ele>1550.74</ele>
        <time>2017-02-10T13:11:11Z</time>
      </trkpt>
      <trkpt lat="42.51404" lon="1.95675">
        <ele>1547.38</ele>
        <time>2017-02-10T13:11:18Z</time>
      </trkpt>
      <trkpt lat="42.51375" lon="1.95697">
        <ele>1543.05</ele>
        <time>2017-02-10T13:11:25Z</time>
      </trkpt>
      <trkpt lat="42.51371" lon="1.95701">
        <ele>1543.05</ele>
        <time>2017-02-10T13:11:26Z</time>
      </trkpt>
      <trkpt lat="42.51314" lon="1.95746">
        <ele>1535.36</ele>
        <time>2017-02-10T13:11:48Z</time>
      </trkpt>
      <trkpt lat="42.51286" lon="1.95748">
        <ele>1530.56</ele>
        <time>2017-02-10T13:12:06Z</time>
      </trkpt>
      <trkpt lat="42.51284" lon="1.95749">
        <ele>1530.56</ele>
        <time>2017-02-10T13:12:07Z</time>
      </trkpt>
      <trkpt lat="42.51234" lon="1.95758">
        <ele>1523.83</ele>
        <time>2017-02-10T13:12:29Z</time>
      </trkpt>
      <trkpt lat="42.51143" lon="1.95812">
        <ele>1520.46</ele>
        <time>2017-02-10T13:13:23Z</time>
      </trkpt>
      <trkpt lat="42.5111" lon="1.95815">
        <ele>1516.62</ele>
        <time>2017-02-10T13:13:38Z</time>
      </trkpt>
      <trkpt lat="42.51108" lon="1.95817">
        <ele>1516.62</ele>
        <time>2017-02-10T13:13:39Z</time>
      </trkpt>
      <trkpt lat="42.51082" lon="1.95828">
        <ele>1510.85</ele>
        <time>2017-02-10T13:13:50Z</time>
      </trkpt>
      <trkpt lat="42.51078" lon="1.95825">
        <ele>1510.85</ele>
        <time>2017-02-10T13:13:51Z</time>
      </trkpt>
      <trkpt lat="42.50985" lon="1.95805">
        <ele>1505.56</ele>
        <time>2017-02-10T13:14:16Z</time>
      </trkpt>
      <trkpt lat="42.50915" lon="1.95858">
        <ele>1499.79</ele>
        <time>2017-02-10T13:14:37Z</time>
      </trkpt>
      <trkpt lat="42.5082" lon="1.95935">
        <ele>1494.99</ele>
        <time>2017-02-10T13:15:09Z</time>
      </trkpt>
      <trkpt lat="42.50719" lon="1.95959">
        <ele>1490.18</ele>
        <time>2017-02-10T13:15:53Z</time>
      </trkpt>
      <trkpt lat="42.50647" lon="1.95949">
        <ele>1484.89</ele>
        <time>2017-02-10T13:16:22Z</time>
      </trkpt>
      <trkpt lat="42.50584" lon="1.9594">
        <ele>1479.13</ele>
        <time>2017-02-10T13:17:05Z</time>
      </trkpt>
      <trkpt lat="42.50581" lon="1.95939">
        <ele>1479.13</ele>
        <time>2017-02-10T13:17:06Z</time>
      </trkpt>
      <trkpt lat="42.50458" lon="1.95942">
        <ele>1475.28</ele>
        <time>2017-02-10T13:17:48Z</time>
      </trkpt>
      <trkpt lat="42.50397" lon="1.95949">
        <ele>1469.03</ele>
        <time>2017-02-10T13:18:08Z</time>
      </trkpt>
      <trkpt lat="42.50346" lon="1.95938">
        <ele>1464.23</ele>
        <time>2017-02-10T13:18:21Z</time>
      </trkpt>
      <trkpt lat="42.50309" lon="1.95924">
        <ele>1460.86</ele>
        <time>2017-02-10T13:18:33Z</time>
      </trkpt>
      <trkpt lat="42.50199" lon="1.95921">
        <ele>1456.53</ele>
        <time>2017-02-10T13:20:54Z</time>
      </trkpt>
      <trkpt lat="42.50056" lon="1.95849">
        <ele>1451.25</ele>
        <time>2017-02-10T13:22:09Z</time>
      </trkpt>
      <trkpt lat="42.50026" lon="1.95852">
        <ele>1445.48</ele>
        <time>2017-02-10T13:22:17Z</time>
      </trkpt>
      <trkpt lat="42.49984" lon="1.95867">
        <ele>1441.63</ele>
        <time>2017-02-10T13:22:25Z</time>
      </trkpt>
      <trkpt lat="42.49952" lon="1.95891">
        <ele>1438.27</ele>
        <time>2017-02-10T13:22:37Z</time>
      </trkpt>
      <trkpt lat="42.49922" lon="1.95922">
        <ele>1432.5</ele>
        <time>2017-02-10T13:22:46Z</time>
      </trkpt>
      <trkpt lat="42.49903" lon="1.95942">
        <ele>1429.14</ele>
        <time>2017-02-10T13:22:57Z</time>
      </trkpt>
      <trkpt lat="42.49901" lon="1.95943">
        <ele>1429.14</ele>
        <time>2017-02-10T13:22:58Z</time>
      </trkpt>
      <trkpt lat="42.49836" lon="1.9598">
        <ele>1424.33</ele>
        <time>2017-02-10T13:23:23Z</time>
      </trkpt>
      <trkpt lat="42.49822" lon="1.95988">
        <ele>1423.37</ele>
        <time>2017-02-10T13:23:29Z</time>
      </trkpt>
      <trkpt lat="42.4982" lon="1.95988">
        <ele>1423.37</ele>
        <time>2017-02-10T13:23:30Z</time>
      </trkpt>
      <trkpt lat="42.49781" lon="1.95996">
        <ele>1420</ele>
        <time>2017-02-10T13:23:45Z</time>
      </trkpt>
      <trkpt lat="42.49754" lon="1.96005">
        <ele>1418.08</ele>
        <time>2017-02-10T13:29:30Z</time>
      </trkpt>
      <trkpt lat="42.49604" lon="1.95967">
        <ele>1413.76</ele>
        <time>2017-02-10T13:42:06Z</time>
      </trkpt>
      <trkpt lat="42.49535" lon="1.95972">
        <ele>1410.39</ele>
        <time>2017-02-10T13:42:53Z</time>
      </trkpt>
      <trkpt lat="42.49482" lon="1.95976">
        <ele>1407.03</ele>
        <time>2017-02-10T13:43:33Z</time>
      </trkpt>
      <trkpt lat="42.49402" lon="1.95964">
        <ele>1402.7</ele>
        <time>2017-02-10T13:44:33Z</time>
      </trkpt>
      <trkpt lat="42.49342" lon="1.95963">
        <ele>1398.37</ele>
        <time>2017-02-10T13:45:17Z</time>
      </trkpt>
      <trkpt lat="42.49241" lon="1.9599">
        <ele>1395.01</ele>
        <time>2017-02-10T13:46:33Z</time>
      </trkpt>
      <trkpt lat="42.49209" lon="1.96001">
        <ele>1391.65</ele>
        <time>2017-02-10T13:47:00Z</time>
      </trkpt>
      <trkpt lat="42.49156" lon="1.96015">
        <ele>1386.84</ele>
        <time>2017-02-10T13:47:40Z</time>
      </trkpt>
      <trkpt lat="42.49106" lon="1.96034">
        <ele>1380.59</ele>
        <time>2017-02-10T13:48:19Z</time>
      </trkpt>
      <trkpt lat="42.49055" lon="1.96046">
        <ele>1375.3</ele>
        <time>2017-02-10T13:48:53Z</time>
      </trkpt>
      <trkpt lat="42.49025" lon="1.96051">
        <ele>1371.94</ele>
        <time>2017-02-10T13:49:17Z</time>
      </trkpt>
      <trkpt lat="42.48953" lon="1.96049">
        <ele>1367.13</ele>
        <time>2017-02-10T13:50:08Z</time>
      </trkpt>
      <trkpt lat="42.48915" lon="1.96047">
        <ele>1362.81</ele>
        <time>2017-02-10T13:50:43Z</time>
      </trkpt>
      <trkpt lat="42.48902" lon="1.96057">
        <ele>1360.88</ele>
        <time>2017-02-10T13:52:17Z</time>
      </trkpt>
    </trkseg>
  </trk>
</gpx>